sensor_id;sensor_type;location;lat;lon;timestamp;P1;durP1;ratioP1;P2;durP2;ratioP2
59659;SDS011;45534;52.690;6.268;2023-08-12T00:01:48;7.15;;;4.43;;
59659;SDS011;45534;52.690;6.268;2023-08-12T00:04:13;8.80;;;3.90;;
59659;SDS011;45534;52.690;6.268;2023-08-12T00:06:40;9.18;;;4.35;;
59659;SDS011;45534;52.690;6.268;2023-08-12T00:09:06;8.63;;;6.43;;
59659;SDS011;45534;52.690;6.268;2023-08-12T00:11:34;9.65;;;5.97;;
59659;SDS011;45534;52.690;6.268;2023-08-12T00:14:00;9.30;;;5.40;;
59659;SDS011;45534;52.690;6.268;2023-08-12T00:16:26;15.55;;;9.13;;
59659;SDS011;45534;52.690;6.268;2023-08-12T00:18:52;15.52;;;5.68;;
59659;SDS011;45534;52.690;6.268;2023-08-12T00:21:17;17.50;;;9.40;;
59659;SDS011;45534;52.690;6.268;2023-08-12T00:23:43;29.27;;;9.63;;
59659;SDS011;45534;52.690;6.268;2023-08-12T00:26:09;11.45;;;7.25;;
59659;SDS011;45534;52.690;6.268;2023-08-12T00:28:35;11.52;;;4.88;;
59659;SDS011;45534;52.690;6.268;2023-08-12T00:31:02;12.10;;;5.22;;
59659;SDS011;45534;52.690;6.268;2023-08-12T00:33:28;8.27;;;4.45;;
59659;SDS011;45534;52.690;6.268;2023-08-12T00:35:54;11.07;;;4.97;;
59659;SDS011;45534;52.690;6.268;2023-08-12T00:38:19;7.82;;;4.47;;
59659;SDS011;45534;52.690;6.268;2023-08-12T00:40:46;9.43;;;5.30;;
59659;SDS011;45534;52.690;6.268;2023-08-12T00:43:12;7.10;;;4.32;;
59659;SDS011;45534;52.690;6.268;2023-08-12T00:45:37;13.65;;;9.07;;
59659;SDS011;45534;52.690;6.268;2023-08-12T00:48:03;7.72;;;4.07;;
59659;SDS011;45534;52.690;6.268;2023-08-12T00:50:30;11.30;;;5.20;;
59659;SDS011;45534;52.690;6.268;2023-08-12T00:52:57;9.45;;;5.38;;
59659;SDS011;45534;52.690;6.268;2023-08-12T00:55:24;19.15;;;10.07;;
59659;SDS011;45534;52.690;6.268;2023-08-12T00:57:50;8.15;;;4.43;;
59659;SDS011;45534;52.690;6.268;2023-08-12T01:00:16;7.50;;;5.05;;
59659;SDS011;45534;52.690;6.268;2023-08-12T01:02:46;14.15;;;9.98;;
59659;SDS011;45534;52.690;6.268;2023-08-12T01:05:16;9.60;;;4.88;;
59659;SDS011;45534;52.690;6.268;2023-08-12T01:07:42;8.38;;;4.40;;
59659;SDS011;45534;52.690;6.268;2023-08-12T01:10:10;8.98;;;6.10;;
59659;SDS011;45534;52.690;6.268;2023-08-12T01:15:15;9.20;;;5.57;;
59659;SDS011;45534;52.690;6.268;2023-08-12T01:17:46;9.88;;;6.28;;
59659;SDS011;45534;52.690;6.268;2023-08-12T01:20:17;8.05;;;5.53;;
59659;SDS011;45534;52.690;6.268;2023-08-12T01:22:49;8.35;;;4.22;;
59659;SDS011;45534;52.690;6.268;2023-08-12T01:25:23;7.88;;;5.55;;
59659;SDS011;45534;52.690;6.268;2023-08-12T01:27:52;7.03;;;4.43;;
59659;SDS011;45534;52.690;6.268;2023-08-12T01:30:18;11.18;;;4.68;;
59659;SDS011;45534;52.690;6.268;2023-08-12T01:37:44;7.78;;;5.25;;
59659;SDS011;45534;52.690;6.268;2023-08-12T01:40:11;14.25;;;5.72;;
59659;SDS011;45534;52.690;6.268;2023-08-12T01:42:40;10.35;;;5.85;;
59659;SDS011;45534;52.690;6.268;2023-08-12T01:45:06;14.70;;;11.43;;
59659;SDS011;45534;52.690;6.268;2023-08-12T01:47:32;8.75;;;5.40;;
59659;SDS011;45534;52.690;6.268;2023-08-12T01:49:58;8.45;;;4.88;;
59659;SDS011;45534;52.690;6.268;2023-08-12T01:52:24;15.98;;;10.45;;
59659;SDS011;45534;52.690;6.268;2023-08-12T01:54:50;8.18;;;5.07;;
59659;SDS011;45534;52.690;6.268;2023-08-12T01:57:16;10.15;;;6.55;;
59659;SDS011;45534;52.690;6.268;2023-08-12T01:59:42;8.52;;;6.90;;
59659;SDS011;45534;52.690;6.268;2023-08-12T02:02:09;21.15;;;6.68;;
59659;SDS011;45534;52.690;6.268;2023-08-12T02:04:34;8.90;;;5.88;;
59659;SDS011;45534;52.690;6.268;2023-08-12T02:07:02;8.93;;;5.45;;
59659;SDS011;45534;52.690;6.268;2023-08-12T02:09:28;14.25;;;6.25;;
59659;SDS011;45534;52.690;6.268;2023-08-12T02:11:54;8.68;;;5.13;;
59659;SDS011;45534;52.690;6.268;2023-08-12T02:14:19;11.93;;;5.80;;
59659;SDS011;45534;52.690;6.268;2023-08-12T02:16:45;8.48;;;5.57;;
59659;SDS011;45534;52.690;6.268;2023-08-12T02:19:11;11.05;;;5.68;;
59659;SDS011;45534;52.690;6.268;2023-08-12T02:21:36;10.02;;;5.30;;
59659;SDS011;45534;52.690;6.268;2023-08-12T02:24:02;12.27;;;6.57;;
59659;SDS011;45534;52.690;6.268;2023-08-12T02:26:28;10.95;;;5.50;;
59659;SDS011;45534;52.690;6.268;2023-08-12T02:28:53;11.20;;;7.47;;
59659;SDS011;45534;52.690;6.268;2023-08-12T02:31:19;17.05;;;6.95;;
59659;SDS011;45534;52.690;6.268;2023-08-12T02:33:45;7.85;;;5.22;;
59659;SDS011;45534;52.690;6.268;2023-08-12T02:36:10;10.57;;;5.60;;
59659;SDS011;45534;52.690;6.268;2023-08-12T02:38:36;14.77;;;11.77;;
59659;SDS011;45534;52.690;6.268;2023-08-12T02:41:01;14.65;;;8.43;;
59659;SDS011;45534;52.690;6.268;2023-08-12T02:43:27;18.42;;;13.02;;
59659;SDS011;45534;52.690;6.268;2023-08-12T02:45:53;10.52;;;5.68;;
59659;SDS011;45534;52.690;6.268;2023-08-12T02:48:18;8.38;;;5.75;;
59659;SDS011;45534;52.690;6.268;2023-08-12T02:50:44;10.15;;;6.90;;
59659;SDS011;45534;52.690;6.268;2023-08-12T02:53:10;8.07;;;5.47;;
59659;SDS011;45534;52.690;6.268;2023-08-12T02:55:35;9.48;;;5.70;;
59659;SDS011;45534;52.690;6.268;2023-08-12T02:58:02;9.98;;;7.22;;
59659;SDS011;45534;52.690;6.268;2023-08-12T03:00:28;10.52;;;7.13;;
59659;SDS011;45534;52.690;6.268;2023-08-12T03:02:54;20.33;;;12.60;;
59659;SDS011;45534;52.690;6.268;2023-08-12T03:05:20;16.15;;;11.35;;
59659;SDS011;45534;52.690;6.268;2023-08-12T03:07:46;20.25;;;13.95;;
59659;SDS011;45534;52.690;6.268;2023-08-12T03:10:12;9.45;;;6.60;;
59659;SDS011;45534;52.690;6.268;2023-08-12T03:12:38;11.85;;;7.60;;
59659;SDS011;45534;52.690;6.268;2023-08-12T03:15:05;17.23;;;13.55;;
59659;SDS011;45534;52.690;6.268;2023-08-12T03:17:32;9.57;;;6.70;;
59659;SDS011;45534;52.690;6.268;2023-08-12T03:19:58;9.75;;;5.50;;
59659;SDS011;45534;52.690;6.268;2023-08-12T03:22:29;14.82;;;6.30;;
59659;SDS011;45534;52.690;6.268;2023-08-12T03:24:55;37.85;;;8.23;;
59659;SDS011;45534;52.690;6.268;2023-08-12T03:27:20;10.05;;;5.95;;
59659;SDS011;45534;52.690;6.268;2023-08-12T03:29:46;9.80;;;6.38;;
59659;SDS011;45534;52.690;6.268;2023-08-12T03:32:12;11.35;;;6.72;;
59659;SDS011;45534;52.690;6.268;2023-08-12T03:34:38;12.73;;;7.47;;
59659;SDS011;45534;52.690;6.268;2023-08-12T03:37:04;8.63;;;6.47;;
59659;SDS011;45534;52.690;6.268;2023-08-12T03:39:30;11.10;;;6.22;;
59659;SDS011;45534;52.690;6.268;2023-08-12T03:41:56;12.55;;;7.43;;
59659;SDS011;45534;52.690;6.268;2023-08-12T03:44:21;14.68;;;8.18;;
59659;SDS011;45534;52.690;6.268;2023-08-12T03:46:47;13.35;;;7.10;;
59659;SDS011;45534;52.690;6.268;2023-08-12T03:49:13;13.95;;;8.20;;
59659;SDS011;45534;52.690;6.268;2023-08-12T03:51:38;10.52;;;5.85;;
59659;SDS011;45534;52.690;6.268;2023-08-12T03:54:04;10.75;;;7.38;;
59659;SDS011;45534;52.690;6.268;2023-08-12T03:56:30;12.93;;;6.95;;
59659;SDS011;45534;52.690;6.268;2023-08-12T03:58:56;12.40;;;7.30;;
59659;SDS011;45534;52.690;6.268;2023-08-12T04:01:21;12.30;;;8.25;;
59659;SDS011;45534;52.690;6.268;2023-08-12T04:03:47;11.70;;;5.78;;
59659;SDS011;45534;52.690;6.268;2023-08-12T04:06:13;8.65;;;6.65;;
59659;SDS011;45534;52.690;6.268;2023-08-12T04:08:39;13.35;;;8.32;;
59659;SDS011;45534;52.690;6.268;2023-08-12T04:11:04;11.93;;;6.90;;
59659;SDS011;45534;52.690;6.268;2023-08-12T04:13:30;11.65;;;7.63;;
59659;SDS011;45534;52.690;6.268;2023-08-12T04:15:56;10.15;;;6.85;;
59659;SDS011;45534;52.690;6.268;2023-08-12T04:18:21;20.77;;;15.10;;
59659;SDS011;45534;52.690;6.268;2023-08-12T04:20:51;16.48;;;6.53;;
59659;SDS011;45534;52.690;6.268;2023-08-12T04:23:17;12.35;;;8.98;;
59659;SDS011;45534;52.690;6.268;2023-08-12T04:25:44;26.02;;;9.05;;
59659;SDS011;45534;52.690;6.268;2023-08-12T04:28:13;16.23;;;9.02;;
59659;SDS011;45534;52.690;6.268;2023-08-12T04:30:42;18.50;;;8.70;;
59659;SDS011;45534;52.690;6.268;2023-08-12T04:33:09;28.65;;;17.60;;
59659;SDS011;45534;52.690;6.268;2023-08-12T04:35:35;17.08;;;9.93;;
59659;SDS011;45534;52.690;6.268;2023-08-12T04:38:00;10.18;;;7.30;;
59659;SDS011;45534;52.690;6.268;2023-08-12T04:40:26;21.67;;;8.57;;
59659;SDS011;45534;52.690;6.268;2023-08-12T04:42:52;26.75;;;17.05;;
59659;SDS011;45534;52.690;6.268;2023-08-12T04:45:17;13.35;;;10.50;;
59659;SDS011;45534;52.690;6.268;2023-08-12T04:47:43;23.23;;;10.00;;
59659;SDS011;45534;52.690;6.268;2023-08-12T04:50:09;14.88;;;8.43;;
59659;SDS011;45534;52.690;6.268;2023-08-12T04:52:35;17.63;;;8.38;;
59659;SDS011;45534;52.690;6.268;2023-08-12T04:55:01;14.02;;;9.75;;
59659;SDS011;45534;52.690;6.268;2023-08-12T04:57:28;13.18;;;9.88;;
59659;SDS011;45534;52.690;6.268;2023-08-12T04:59:54;23.52;;;9.77;;
59659;SDS011;45534;52.690;6.268;2023-08-12T05:02:20;16.65;;;9.52;;
59659;SDS011;45534;52.690;6.268;2023-08-12T05:04:47;29.10;;;20.33;;
59659;SDS011;45534;52.690;6.268;2023-08-12T05:07:14;18.27;;;10.88;;
59659;SDS011;45534;52.690;6.268;2023-08-12T05:09:41;19.63;;;12.32;;
59659;SDS011;45534;52.690;6.268;2023-08-12T05:12:09;23.52;;;15.75;;
59659;SDS011;45534;52.690;6.268;2023-08-12T05:14:35;18.35;;;12.95;;
59659;SDS011;45534;52.690;6.268;2023-08-12T05:17:00;24.65;;;12.73;;
59659;SDS011;45534;52.690;6.268;2023-08-12T05:19:26;17.65;;;11.48;;
59659;SDS011;45534;52.690;6.268;2023-08-12T05:21:52;18.52;;;13.30;;
59659;SDS011;45534;52.690;6.268;2023-08-12T05:24:17;18.60;;;13.10;;
59659;SDS011;45534;52.690;6.268;2023-08-12T05:26:43;23.27;;;12.18;;
59659;SDS011;45534;52.690;6.268;2023-08-12T05:29:09;23.10;;;12.38;;
59659;SDS011;45534;52.690;6.268;2023-08-12T05:31:34;17.73;;;10.70;;
59659;SDS011;45534;52.690;6.268;2023-08-12T05:34:00;15.82;;;11.45;;
59659;SDS011;45534;52.690;6.268;2023-08-12T05:36:26;16.15;;;11.45;;
59659;SDS011;45534;52.690;6.268;2023-08-12T05:38:51;30.40;;;24.15;;
59659;SDS011;45534;52.690;6.268;2023-08-12T05:41:17;30.80;;;23.50;;
59659;SDS011;45534;52.690;6.268;2023-08-12T05:43:42;17.98;;;12.23;;
59659;SDS011;45534;52.690;6.268;2023-08-12T05:46:08;28.30;;;23.42;;
59659;SDS011;45534;52.690;6.268;2023-08-12T05:48:34;21.83;;;16.52;;
59659;SDS011;45534;52.690;6.268;2023-08-12T05:50:59;19.65;;;13.88;;
59659;SDS011;45534;52.690;6.268;2023-08-12T05:53:25;21.27;;;13.00;;
59659;SDS011;45534;52.690;6.268;2023-08-12T05:55:51;23.90;;;14.77;;
59659;SDS011;45534;52.690;6.268;2023-08-12T05:58:16;18.40;;;9.93;;
59659;SDS011;45534;52.690;6.268;2023-08-12T06:00:42;21.30;;;12.35;;
59659;SDS011;45534;52.690;6.268;2023-08-12T06:03:11;36.60;;;28.08;;
59659;SDS011;45534;52.690;6.268;2023-08-12T06:05:37;32.30;;;27.40;;
59659;SDS011;45534;52.690;6.268;2023-08-12T06:08:04;34.00;;;28.75;;
59659;SDS011;45534;52.690;6.268;2023-08-12T06:10:30;32.97;;;29.40;;
59659;SDS011;45534;52.690;6.268;2023-08-12T06:12:55;21.52;;;11.02;;
59659;SDS011;45534;52.690;6.268;2023-08-12T06:15:21;19.10;;;13.70;;
59659;SDS011;45534;52.690;6.268;2023-08-12T06:17:47;19.90;;;14.57;;
59659;SDS011;45534;52.690;6.268;2023-08-12T06:20:12;16.90;;;12.45;;
59659;SDS011;45534;52.690;6.268;2023-08-12T06:22:38;36.80;;;28.85;;
59659;SDS011;45534;52.690;6.268;2023-08-12T06:25:04;20.40;;;14.75;;
59659;SDS011;45534;52.690;6.268;2023-08-12T06:27:29;31.25;;;27.88;;
59659;SDS011;45534;52.690;6.268;2023-08-12T06:29:55;26.70;;;16.45;;
59659;SDS011;45534;52.690;6.268;2023-08-12T06:32:21;24.88;;;13.30;;
59659;SDS011;45534;52.690;6.268;2023-08-12T06:34:46;15.75;;;10.90;;
59659;SDS011;45534;52.690;6.268;2023-08-12T06:37:12;33.90;;;27.25;;
59659;SDS011;45534;52.690;6.268;2023-08-12T06:39:38;32.80;;;28.80;;
59659;SDS011;45534;52.690;6.268;2023-08-12T06:42:04;17.75;;;13.77;;
59659;SDS011;45534;52.690;6.268;2023-08-12T06:44:29;21.25;;;13.88;;
59659;SDS011;45534;52.690;6.268;2023-08-12T06:46:55;24.77;;;13.98;;
59659;SDS011;45534;52.690;6.268;2023-08-12T06:49:21;18.10;;;14.30;;
59659;SDS011;45534;52.690;6.268;2023-08-12T06:51:46;15.60;;;13.82;;
59659;SDS011;45534;52.690;6.268;2023-08-12T06:54:12;21.88;;;16.77;;
59659;SDS011;45534;52.690;6.268;2023-08-12T06:56:38;29.08;;;14.43;;
59659;SDS011;45534;52.690;6.268;2023-08-12T06:59:03;25.42;;;16.88;;
59659;SDS011;45534;52.690;6.268;2023-08-12T07:01:29;19.88;;;14.13;;
59659;SDS011;45534;52.690;6.268;2023-08-12T07:03:55;29.15;;;13.27;;
59659;SDS011;45534;52.690;6.268;2023-08-12T07:06:21;33.55;;;29.05;;
59659;SDS011;45534;52.690;6.268;2023-08-12T07:08:47;24.65;;;12.45;;
59659;SDS011;45534;52.690;6.268;2023-08-12T07:11:13;32.72;;;29.05;;
59659;SDS011;45534;52.690;6.268;2023-08-12T07:13:38;22.23;;;15.75;;
59659;SDS011;45534;52.690;6.268;2023-08-12T07:16:04;22.35;;;11.48;;
59659;SDS011;45534;52.690;6.268;2023-08-12T07:18:30;24.85;;;13.82;;
59659;SDS011;45534;52.690;6.268;2023-08-12T07:20:56;33.58;;;27.05;;
59659;SDS011;45534;52.690;6.268;2023-08-12T07:23:23;21.95;;;15.43;;
59659;SDS011;45534;52.690;6.268;2023-08-12T07:25:49;36.63;;;27.73;;
59659;SDS011;45534;52.690;6.268;2023-08-12T07:28:15;18.58;;;13.18;;
59659;SDS011;45534;52.690;6.268;2023-08-12T07:30:40;21.10;;;11.98;;
59659;SDS011;45534;52.690;6.268;2023-08-12T07:33:06;20.48;;;12.07;;
59659;SDS011;45534;52.690;6.268;2023-08-12T07:35:32;24.98;;;13.40;;
59659;SDS011;45534;52.690;6.268;2023-08-12T07:37:58;29.20;;;14.38;;
59659;SDS011;45534;52.690;6.268;2023-08-12T07:40:23;35.92;;;29.08;;
59659;SDS011;45534;52.690;6.268;2023-08-12T07:42:49;35.63;;;28.90;;
59659;SDS011;45534;52.690;6.268;2023-08-12T07:45:15;29.65;;;14.18;;
59659;SDS011;45534;52.690;6.268;2023-08-12T07:47:40;20.30;;;15.32;;
59659;SDS011;45534;52.690;6.268;2023-08-12T07:50:06;21.60;;;13.48;;
59659;SDS011;45534;52.690;6.268;2023-08-12T07:52:32;26.70;;;13.05;;
59659;SDS011;45534;52.690;6.268;2023-08-12T07:54:58;19.35;;;13.40;;
59659;SDS011;45534;52.690;6.268;2023-08-12T07:57:23;22.02;;;13.43;;
59659;SDS011;45534;52.690;6.268;2023-08-12T07:59:50;15.43;;;10.82;;
59659;SDS011;45534;52.690;6.268;2023-08-12T08:02:16;17.38;;;12.23;;
59659;SDS011;45534;52.690;6.268;2023-08-12T08:04:42;17.90;;;11.13;;
59659;SDS011;45534;52.690;6.268;2023-08-12T08:07:07;16.80;;;12.73;;
59659;SDS011;45534;52.690;6.268;2023-08-12T08:09:33;40.97;;;27.58;;
59659;SDS011;45534;52.690;6.268;2023-08-12T08:11:59;20.00;;;11.98;;
59659;SDS011;45534;52.690;6.268;2023-08-12T08:14:26;15.68;;;9.95;;
59659;SDS011;45534;52.690;6.268;2023-08-12T08:16:52;17.90;;;10.98;;
59659;SDS011;45534;52.690;6.268;2023-08-12T08:19:18;11.88;;;6.95;;
59659;SDS011;45534;52.690;6.268;2023-08-12T08:21:44;24.98;;;18.20;;
59659;SDS011;45534;52.690;6.268;2023-08-12T08:24:10;14.77;;;7.53;;
59659;SDS011;45534;52.690;6.268;2023-08-12T08:26:38;18.02;;;11.50;;
59659;SDS011;45534;52.690;6.268;2023-08-12T08:29:05;25.55;;;16.75;;
59659;SDS011;45534;52.690;6.268;2023-08-12T08:31:31;16.25;;;9.45;;
59659;SDS011;45534;52.690;6.268;2023-08-12T08:34:00;12.20;;;7.22;;
59659;SDS011;45534;52.690;6.268;2023-08-12T08:36:25;9.52;;;6.70;;
59659;SDS011;45534;52.690;6.268;2023-08-12T08:38:51;11.48;;;6.95;;
59659;SDS011;45534;52.690;6.268;2023-08-12T08:41:17;12.98;;;6.63;;
59659;SDS011;45534;52.690;6.268;2023-08-12T08:43:43;9.68;;;5.82;;
59659;SDS011;45534;52.690;6.268;2023-08-12T08:46:09;20.90;;;13.60;;
59659;SDS011;45534;52.690;6.268;2023-08-12T08:48:39;7.38;;;5.10;;
59659;SDS011;45534;52.690;6.268;2023-08-12T08:51:06;6.35;;;5.05;;
59659;SDS011;45534;52.690;6.268;2023-08-12T08:53:35;12.85;;;5.05;;
59659;SDS011;45534;52.690;6.268;2023-08-12T08:56:04;14.07;;;5.85;;
59659;SDS011;45534;52.690;6.268;2023-08-12T08:58:31;6.32;;;4.13;;
59659;SDS011;45534;52.690;6.268;2023-08-12T09:00:57;8.88;;;4.10;;
59659;SDS011;45534;52.690;6.268;2023-08-12T09:03:23;5.75;;;3.85;;
59659;SDS011;45534;52.690;6.268;2023-08-12T09:05:50;5.63;;;3.67;;
59659;SDS011;45534;52.690;6.268;2023-08-12T09:08:20;5.53;;;3.88;;
59659;SDS011;45534;52.690;6.268;2023-08-12T09:10:47;8.88;;;5.72;;
59659;SDS011;45534;52.690;6.268;2023-08-12T09:13:13;5.75;;;4.18;;
59659;SDS011;45534;52.690;6.268;2023-08-12T09:15:40;10.57;;;4.70;;
59659;SDS011;45534;52.690;6.268;2023-08-12T09:18:06;4.00;;;3.38;;
59659;SDS011;45534;52.690;6.268;2023-08-12T09:20:34;10.88;;;4.80;;
59659;SDS011;45534;52.690;6.268;2023-08-12T09:23:01;8.90;;;5.63;;
59659;SDS011;45534;52.690;6.268;2023-08-12T09:25:28;2.25;;;2.13;;
59659;SDS011;45534;52.690;6.268;2023-08-12T09:28:00;5.05;;;2.60;;
59659;SDS011;45534;52.690;6.268;2023-08-12T09:30:29;2.63;;;2.40;;
59659;SDS011;45534;52.690;6.268;2023-08-12T09:32:58;7.55;;;4.93;;
59659;SDS011;45534;52.690;6.268;2023-08-12T09:35:47;3.58;;;2.33;;
59659;SDS011;45534;52.690;6.268;2023-08-12T09:38:14;4.75;;;3.33;;
59659;SDS011;45534;52.690;6.268;2023-08-12T09:40:40;2.92;;;2.72;;
59659;SDS011;45534;52.690;6.268;2023-08-12T09:43:06;6.85;;;3.50;;
59659;SDS011;45534;52.690;6.268;2023-08-12T09:45:33;5.82;;;2.58;;
59659;SDS011;45534;52.690;6.268;2023-08-12T09:48:00;6.03;;;3.22;;
59659;SDS011;45534;52.690;6.268;2023-08-12T09:50:26;6.13;;;2.70;;
59659;SDS011;45534;52.690;6.268;2023-08-12T09:52:55;3.40;;;2.33;;
59659;SDS011;45534;52.690;6.268;2023-08-12T09:55:22;7.05;;;3.88;;
59659;SDS011;45534;52.690;6.268;2023-08-12T09:57:52;5.85;;;3.05;;
59659;SDS011;45534;52.690;6.268;2023-08-12T10:00:20;2.83;;;2.60;;
59659;SDS011;45534;52.690;6.268;2023-08-12T10:02:48;3.90;;;2.33;;
59659;SDS011;45534;52.690;6.268;2023-08-12T10:05:27;4.65;;;2.33;;
59659;SDS011;45534;52.690;6.268;2023-08-12T10:07:53;3.20;;;3.00;;
59659;SDS011;45534;52.690;6.268;2023-08-12T10:10:20;2.70;;;2.47;;
59659;SDS011;45534;52.690;6.268;2023-08-12T10:12:47;4.95;;;2.80;;
59659;SDS011;45534;52.690;6.268;2023-08-12T10:15:13;3.15;;;2.15;;
59659;SDS011;45534;52.690;6.268;2023-08-12T10:17:40;2.50;;;2.15;;
59659;SDS011;45534;52.690;6.268;2023-08-12T10:20:07;6.30;;;5.15;;
59659;SDS011;45534;52.690;6.268;2023-08-12T10:22:34;4.68;;;2.58;;
59659;SDS011;45534;52.690;6.268;2023-08-12T10:25:02;3.38;;;2.00;;
59659;SDS011;45534;52.690;6.268;2023-08-12T10:27:28;4.88;;;3.03;;
59659;SDS011;45534;52.690;6.268;2023-08-12T10:29:57;2.80;;;2.30;;
59659;SDS011;45534;52.690;6.268;2023-08-12T10:32:26;6.28;;;4.55;;
59659;SDS011;45534;52.690;6.268;2023-08-12T10:34:55;8.43;;;5.47;;
59659;SDS011;45534;52.690;6.268;2023-08-12T10:37:23;2.55;;;2.25;;
59659;SDS011;45534;52.690;6.268;2023-08-12T10:39:52;2.78;;;2.40;;
59659;SDS011;45534;52.690;6.268;2023-08-12T10:45:12;5.30;;;2.30;;
59659;SDS011;45534;52.690;6.268;2023-08-12T10:47:49;1.98;;;1.77;;
59659;SDS011;45534;52.690;6.268;2023-08-12T10:50:34;3.17;;;2.38;;
59659;SDS011;45534;52.690;6.268;2023-08-12T10:53:01;2.13;;;1.92;;
59659;SDS011;45534;52.690;6.268;2023-08-12T10:55:59;4.03;;;3.63;;
59659;SDS011;45534;52.690;6.268;2023-08-12T11:00:54;3.05;;;2.55;;
59659;SDS011;45534;52.690;6.268;2023-08-12T11:03:20;1.85;;;1.75;;
59659;SDS011;45534;52.690;6.268;2023-08-12T11:05:46;2.70;;;2.58;;
59659;SDS011;45534;52.690;6.268;2023-08-12T11:08:13;1.60;;;1.50;;
59659;SDS011;45534;52.690;6.268;2023-08-12T11:10:39;1.50;;;1.40;;
59659;SDS011;45534;52.690;6.268;2023-08-12T11:13:05;6.03;;;1.70;;
59659;SDS011;45534;52.690;6.268;2023-08-12T11:18:03;3.55;;;1.80;;
59659;SDS011;45534;52.690;6.268;2023-08-12T11:20:33;1.20;;;1.20;;
59659;SDS011;45534;52.690;6.268;2023-08-12T11:22:59;1.35;;;1.33;;
59659;SDS011;45534;52.690;6.268;2023-08-12T11:25:28;1.85;;;1.30;;
59659;SDS011;45534;52.690;6.268;2023-08-12T11:27:54;2.67;;;2.28;;
59659;SDS011;45534;52.690;6.268;2023-08-12T11:30:20;3.05;;;1.98;;
59659;SDS011;45534;52.690;6.268;2023-08-12T11:32:48;2.15;;;1.98;;
59659;SDS011;45534;52.690;6.268;2023-08-12T11:35:15;5.20;;;3.03;;
59659;SDS011;45534;52.690;6.268;2023-08-12T11:37:42;4.10;;;3.05;;
59659;SDS011;45534;52.690;6.268;2023-08-12T11:40:16;8.88;;;4.63;;
59659;SDS011;45534;52.690;6.268;2023-08-12T11:42:46;3.13;;;2.30;;
59659;SDS011;45534;52.690;6.268;2023-08-12T11:45:14;9.80;;;5.73;;
59659;SDS011;45534;52.690;6.268;2023-08-12T11:47:41;9.65;;;5.88;;
59659;SDS011;45534;52.690;6.268;2023-08-12T11:50:08;10.90;;;3.28;;
59659;SDS011;45534;52.690;6.268;2023-08-12T11:52:37;6.82;;;4.63;;
59659;SDS011;45534;52.690;6.268;2023-08-12T11:55:07;10.93;;;5.00;;
59659;SDS011;45534;52.690;6.268;2023-08-12T11:57:33;12.65;;;4.93;;
59659;SDS011;45534;52.690;6.268;2023-08-12T12:00:06;1.83;;;1.70;;
59659;SDS011;45534;52.690;6.268;2023-08-12T12:02:44;3.60;;;2.22;;
59659;SDS011;45534;52.690;6.268;2023-08-12T12:05:13;4.57;;;2.50;;
59659;SDS011;45534;52.690;6.268;2023-08-12T12:07:39;7.25;;;4.15;;
59659;SDS011;45534;52.690;6.268;2023-08-12T12:10:05;6.57;;;3.25;;
59659;SDS011;45534;52.690;6.268;2023-08-12T12:12:35;4.97;;;2.63;;
59659;SDS011;45534;52.690;6.268;2023-08-12T12:15:02;2.03;;;1.63;;
59659;SDS011;45534;52.690;6.268;2023-08-12T12:17:28;5.00;;;2.72;;
59659;SDS011;45534;52.690;6.268;2023-08-12T12:19:58;16.52;;;3.63;;
59659;SDS011;45534;52.690;6.268;2023-08-12T12:22:29;4.82;;;2.28;;
59659;SDS011;45534;52.690;6.268;2023-08-12T12:25:00;4.65;;;2.67;;
59659;SDS011;45534;52.690;6.268;2023-08-12T12:27:31;3.78;;;2.15;;
59659;SDS011;45534;52.690;6.268;2023-08-12T12:29:57;3.58;;;2.55;;
59659;SDS011;45534;52.690;6.268;2023-08-12T12:32:23;5.63;;;2.00;;
59659;SDS011;45534;52.690;6.268;2023-08-12T12:34:48;8.05;;;3.92;;
59659;SDS011;45534;52.690;6.268;2023-08-12T12:37:14;7.53;;;3.55;;
59659;SDS011;45534;52.690;6.268;2023-08-12T12:39:40;2.38;;;1.90;;
59659;SDS011;45534;52.690;6.268;2023-08-12T12:42:06;10.60;;;4.03;;
59659;SDS011;45534;52.690;6.268;2023-08-12T12:44:32;7.38;;;3.67;;
59659;SDS011;45534;52.690;6.268;2023-08-12T12:46:58;9.35;;;3.22;;
59659;SDS011;45534;52.690;6.268;2023-08-12T12:49:23;8.20;;;3.90;;
59659;SDS011;45534;52.690;6.268;2023-08-12T12:51:49;9.57;;;3.22;;
59659;SDS011;45534;52.690;6.268;2023-08-12T12:54:15;4.25;;;2.35;;
59659;SDS011;45534;52.690;6.268;2023-08-12T12:56:42;2.30;;;1.83;;
59659;SDS011;45534;52.690;6.268;2023-08-12T12:59:07;5.03;;;2.42;;
59659;SDS011;45534;52.690;6.268;2023-08-12T13:01:33;3.63;;;2.83;;
59659;SDS011;45534;52.690;6.268;2023-08-12T13:03:59;4.18;;;1.85;;
59659;SDS011;45534;52.690;6.268;2023-08-12T13:06:24;14.20;;;2.58;;
59659;SDS011;45534;52.690;6.268;2023-08-12T13:08:50;13.77;;;4.28;;
59659;SDS011;45534;52.690;6.268;2023-08-12T13:11:16;8.90;;;3.40;;
59659;SDS011;45534;52.690;6.268;2023-08-12T13:13:42;8.95;;;3.72;;
59659;SDS011;45534;52.690;6.268;2023-08-12T13:16:08;6.82;;;3.53;;
59659;SDS011;45534;52.690;6.268;2023-08-12T13:18:33;9.93;;;3.65;;
59659;SDS011;45534;52.690;6.268;2023-08-12T13:20:59;13.45;;;3.75;;
59659;SDS011;45534;52.690;6.268;2023-08-12T13:23:25;14.60;;;4.25;;
59659;SDS011;45534;52.690;6.268;2023-08-12T13:25:51;9.05;;;4.00;;
59659;SDS011;45534;52.690;6.268;2023-08-12T13:28:17;15.25;;;4.80;;
59659;SDS011;45534;52.690;6.268;2023-08-12T13:30:43;10.35;;;4.60;;
59659;SDS011;45534;52.690;6.268;2023-08-12T13:33:09;13.45;;;4.18;;
59659;SDS011;45534;52.690;6.268;2023-08-12T13:35:35;11.27;;;5.25;;
59659;SDS011;45534;52.690;6.268;2023-08-12T13:38:01;12.95;;;4.65;;
59659;SDS011;45534;52.690;6.268;2023-08-12T13:40:26;13.98;;;4.65;;
59659;SDS011;45534;52.690;6.268;2023-08-12T13:42:52;10.80;;;3.65;;
59659;SDS011;45534;52.690;6.268;2023-08-12T13:45:18;10.88;;;3.47;;
59659;SDS011;45534;52.690;6.268;2023-08-12T13:47:44;12.50;;;3.80;;
59659;SDS011;45534;52.690;6.268;2023-08-12T13:50:09;12.32;;;4.35;;
59659;SDS011;45534;52.690;6.268;2023-08-12T13:52:35;10.35;;;3.75;;
59659;SDS011;45534;52.690;6.268;2023-08-12T13:55:01;10.13;;;4.03;;
59659;SDS011;45534;52.690;6.268;2023-08-12T13:57:28;12.85;;;3.83;;
59659;SDS011;45534;52.690;6.268;2023-08-12T13:59:54;10.40;;;3.75;;
59659;SDS011;45534;52.690;6.268;2023-08-12T14:02:20;8.70;;;3.05;;
59659;SDS011;45534;52.690;6.268;2023-08-12T14:04:46;11.60;;;3.65;;
59659;SDS011;45534;52.690;6.268;2023-08-12T14:07:11;18.45;;;5.30;;
59659;SDS011;45534;52.690;6.268;2023-08-12T14:09:37;11.30;;;3.75;;
59659;SDS011;45534;52.690;6.268;2023-08-12T14:12:03;6.55;;;3.33;;
59659;SDS011;45534;52.690;6.268;2023-08-12T14:14:29;10.73;;;4.25;;
59659;SDS011;45534;52.690;6.268;2023-08-12T14:16:55;7.43;;;3.50;;
59659;SDS011;45534;52.690;6.268;2023-08-12T14:19:21;11.57;;;3.83;;
59659;SDS011;45534;52.690;6.268;2023-08-12T14:21:47;9.65;;;3.97;;
59659;SDS011;45534;52.690;6.268;2023-08-12T14:24:13;15.00;;;4.20;;
59659;SDS011;45534;52.690;6.268;2023-08-12T14:26:39;10.75;;;3.65;;
59659;SDS011;45534;52.690;6.268;2023-08-12T14:29:05;10.55;;;3.92;;
59659;SDS011;45534;52.690;6.268;2023-08-12T14:31:31;10.10;;;2.95;;
59659;SDS011;45534;52.690;6.268;2023-08-12T14:33:57;12.30;;;4.07;;
59659;SDS011;45534;52.690;6.268;2023-08-12T14:36:23;15.32;;;5.25;;
59659;SDS011;45534;52.690;6.268;2023-08-12T14:38:49;8.38;;;3.47;;
59659;SDS011;45534;52.690;6.268;2023-08-12T14:41:15;9.55;;;3.60;;
59659;SDS011;45534;52.690;6.268;2023-08-12T14:43:41;7.97;;;2.92;;
59659;SDS011;45534;52.690;6.268;2023-08-12T14:46:07;21.27;;;5.07;;
59659;SDS011;45534;52.690;6.268;2023-08-12T14:48:33;8.75;;;3.67;;